createdAt,value
2022-09-16T00:02:42.921Z,98851.28
2022-09-16T00:05:50.127Z,98844.22
2022-09-16T00:08:55.395Z,98839.59
2022-09-16T00:11:58.606Z,98833.59
2022-09-16T00:15:01.766Z,98828.25
2022-09-16T00:18:05.212Z,98831.31
2022-09-16T00:21:11.245Z,98825.00
2022-09-16T00:24:15.725Z,98814.88
2022-09-16T00:27:19.031Z,98833.59
2022-09-16T00:30:22.197Z,98821.47
2022-09-16T00:33:25.905Z,98823.72
2022-09-16T00:36:31.103Z,98813.81
2022-09-16T00:39:34.489Z,98820.25
2022-09-16T00:42:41.847Z,98835.38
2022-09-16T00:45:47.858Z,98835.44
2022-09-16T00:48:51.737Z,98839.03
2022-09-16T00:52:01.979Z,98827.25
2022-09-16T00:55:09.760Z,98831.25
2022-09-16T00:58:19.692Z,98833.06
2022-09-16T01:01:23.588Z,98843.38
2022-09-16T01:04:30.697Z,98840.84
2022-09-16T01:07:41.285Z,98850.53
2022-09-16T01:10:44.715Z,98851.72
2022-09-16T01:13:48.677Z,98858.94
2022-09-16T01:16:59.711Z,98855.22
2022-09-16T01:20:35.921Z,98857.97
2022-09-16T01:24:14.621Z,98868.69
2022-09-16T01:27:56.053Z,98864.09
2022-09-16T01:31:13.011Z,98865.31
2022-09-16T01:34:25.460Z,98856.56
2022-09-16T01:37:39.125Z,98853.91
2022-09-16T01:40:51.008Z,98853.47
2022-09-16T01:44:00.883Z,98846.19
2022-09-16T01:47:12.000Z,98855.00
2022-09-16T01:50:22.796Z,98849.47
2022-09-16T01:53:34.039Z,98848.16
2022-09-16T01:56:44.714Z,98845.06
2022-09-16T01:59:53.750Z,98849.16
2022-09-16T02:03:03.497Z,98845.38
2022-09-16T02:06:09.744Z,98842.38
2022-09-16T02:09:17.549Z,98849.97
2022-09-16T02:12:26.595Z,98858.28
2022-09-16T02:15:31.631Z,98851.81
2022-09-16T02:18:41.063Z,98849.41
2022-09-16T02:21:46.068Z,98850.88
2022-09-16T02:24:50.036Z,98856.16
2022-09-16T02:27:55.326Z,98861.59
2022-09-16T02:31:02.436Z,98872.34
2022-09-16T02:34:14.015Z,98872.56
2022-09-16T02:37:19.966Z,98882.53
2022-09-16T02:40:27.049Z,98878.03
2022-09-16T02:43:31.035Z,98880.09
2022-09-16T02:46:40.991Z,98900.19
2022-09-16T02:49:53.068Z,98900.78
2022-09-16T02:53:01.498Z,98888.78
2022-09-16T02:56:13.466Z,98887.34
2022-09-16T02:59:18.018Z,98889.81
2022-09-16T03:02:21.623Z,98884.13
2022-09-16T03:05:30.155Z,98873.22
2022-09-16T03:08:33.699Z,98872.22
2022-09-16T03:11:58.325Z,98878.56
2022-09-16T03:15:15.707Z,98878.44
2022-09-16T03:18:34.834Z,98882.16
2022-09-16T03:21:45.877Z,98869.84
2022-09-16T03:24:58.150Z,98866.13
2022-09-16T03:28:09.709Z,98866.72
2022-09-16T03:31:19.360Z,98861.97
2022-09-16T03:34:28.325Z,98871.56
2022-09-16T03:37:35.716Z,98871.41
2022-09-16T03:40:39.612Z,98864.81
2022-09-16T03:43:53.080Z,98880.63
2022-09-16T03:46:57.149Z,98880.28
2022-09-16T03:50:00.340Z,98862.38
2022-09-16T03:53:05.500Z,98854.81
2022-09-16T03:56:09.064Z,98846.16
2022-09-16T03:59:12.301Z,98853.63
2022-09-16T04:02:15.510Z,98849.72
2022-09-16T04:05:18.835Z,98843.00
2022-09-16T04:08:23.927Z,98851.75
2022-09-16T04:11:29.769Z,98868.22
2022-09-16T04:14:33.067Z,98870.75
2022-09-16T04:17:36.516Z,98871.03
2022-09-16T04:20:40.179Z,98868.94
2022-09-16T04:23:44.824Z,98867.41
2022-09-16T04:26:48.109Z,98880.19
2022-09-16T04:29:51.359Z,98876.09
2022-09-16T04:32:55.456Z,98877.88
2022-09-16T04:36:04.597Z,98869.16
2022-09-16T04:39:09.356Z,98877.56
2022-09-16T04:42:13.365Z,98881.41
2022-09-16T04:45:16.714Z,98882.22
2022-09-16T04:48:19.996Z,98884.94
2022-09-16T04:51:25.639Z,98881.13
2022-09-16T04:54:30.347Z,98874.53
2022-09-16T04:57:34.095Z,98882.34
2022-09-16T05:00:37.309Z,98888.44
2022-09-16T05:03:41.226Z,98893.72
2022-09-16T05:06:50.700Z,98914.19
2022-09-16T05:09:55.311Z,98906.09
2022-09-16T05:12:58.569Z,98911.97
2022-09-16T05:16:07.461Z,98906.81
2022-09-16T05:19:13.261Z,98910.63
2022-09-16T05:22:16.449Z,98898.69
2022-09-16T05:25:21.409Z,98884.91
2022-09-16T05:28:24.617Z,98880.53
2022-09-16T05:31:29.248Z,98874.28
2022-09-16T05:34:32.673Z,98872.00
2022-09-16T05:37:35.866Z,98868.28
2022-09-16T05:40:40.517Z,98861.81
2022-09-16T05:43:43.981Z,98861.50
2022-09-16T05:46:47.186Z,98861.13
2022-09-16T05:49:50.437Z,98863.41
2022-09-16T05:52:53.607Z,98872.09
2022-09-16T05:55:59.692Z,98862.94
2022-09-16T05:59:03.290Z,98862.75
2022-09-16T06:02:06.614Z,98859.19
2022-09-16T06:05:10.159Z,98861.66
2022-09-16T06:08:13.411Z,98865.34
2022-09-16T06:11:18.282Z,98871.03
2022-09-16T06:14:22.755Z,98873.69
2022-09-16T06:17:25.957Z,98861.63
2022-09-16T06:20:29.236Z,98858.94
2022-09-16T06:23:32.560Z,98857.47
2022-09-16T06:26:38.929Z,98857.53
2022-09-16T06:29:42.127Z,98876.03
2022-09-16T06:32:45.405Z,98863.13
2022-09-16T06:35:48.615Z,98863.00
2022-09-16T06:38:52.333Z,98867.19
2022-09-16T06:41:56.990Z,98864.81
2022-09-16T06:45:12.768Z,98852.91
2022-09-16T06:48:16.019Z,98850.81
2022-09-16T06:51:22.931Z,98849.97
2022-09-16T06:54:26.288Z,98869.69
2022-09-16T06:57:32.242Z,98870.13
2022-09-16T07:00:35.496Z,98864.19
2022-09-16T07:03:39.998Z,98873.34
2022-09-16T07:07:09.228Z,98857.00
2022-09-16T07:10:07.624Z,98864.00
2022-09-16T07:13:12.205Z,98874.72
2022-09-16T07:16:19.119Z,98857.81
2022-09-16T07:19:22.459Z,98873.06
2022-09-16T07:22:25.666Z,98867.75
2022-09-16T07:25:32.465Z,98870.28
2022-09-16T07:28:41.120Z,98866.13
2022-09-16T07:31:44.587Z,98859.19
2022-09-16T07:34:47.793Z,98849.03
2022-09-16T07:37:51.000Z,98855.50
2022-09-16T07:40:54.255Z,98860.03
2022-09-16T07:44:00.697Z,98861.22
2022-09-16T07:47:04.052Z,98863.50
2022-09-16T07:50:08.349Z,98872.06
2022-09-16T07:53:11.547Z,98866.25
2022-09-16T07:56:17.655Z,98871.72
2022-09-16T07:59:22.277Z,98864.13
2022-09-16T08:02:25.647Z,98862.91
2022-09-16T08:05:28.917Z,98863.94
2022-09-16T08:08:32.338Z,98864.31
2022-09-16T08:11:35.648Z,98856.94
2022-09-16T08:14:40.320Z,98854.69
2022-09-16T08:17:43.656Z,98855.97
2022-09-16T08:20:46.910Z,98841.22
2022-09-16T08:23:50.578Z,98838.22
2022-09-16T08:30:05.059Z,98829.13
2022-09-16T08:33:08.537Z,98830.69
2022-09-16T08:36:15.887Z,98828.41
2022-09-16T08:39:19.686Z,98825.03
2022-09-16T08:42:33.198Z,98828.06
2022-09-16T08:45:45.733Z,98821.25
2022-09-16T08:48:57.086Z,98818.44
2022-09-16T08:52:03.875Z,98814.22
2022-09-16T08:55:12.043Z,98816.47
2022-09-16T08:58:18.717Z,98813.59
2022-09-16T09:01:31.140Z,98807.69
2022-09-16T09:04:34.695Z,98796.56
2022-09-16T09:07:54.827Z,98788.25
2022-09-16T09:11:03.423Z,98787.09
2022-09-16T09:14:29.940Z,98782.44
2022-09-16T09:17:49.426Z,98788.97
2022-09-16T09:21:00.541Z,98787.94
2022-09-16T09:24:28.439Z,98790.47
2022-09-16T09:27:41.854Z,98777.38
2022-09-16T09:30:53.718Z,98776.94
2022-09-16T09:34:13.293Z,98767.41
2022-09-16T09:37:36.975Z,98759.88
2022-09-16T09:40:45.102Z,98757.50
2022-09-16T09:43:54.086Z,98757.19
2022-09-16T09:47:03.010Z,98752.41
2022-09-16T09:50:17.886Z,98739.47
2022-09-16T09:53:25.325Z,98740.78
2022-09-16T09:56:33.274Z,98738.09
2022-09-16T09:59:42.593Z,98736.19
2022-09-16T10:02:49.857Z,98733.06
2022-09-16T10:05:54.819Z,98732.81
2022-09-16T10:09:00.308Z,98733.41
2022-09-16T10:12:04.638Z,98731.09
2022-09-16T10:15:20.271Z,98720.66
2022-09-16T10:18:29.805Z,98715.34
2022-09-16T10:21:45.938Z,98709.84
2022-09-16T10:24:55.984Z,98713.19
2022-09-16T10:28:01.466Z,98712.06
2022-09-16T10:31:08.258Z,98725.59
2022-09-16T10:34:19.483Z,98723.06
2022-09-16T10:37:27.929Z,98727.25
2022-09-16T10:40:32.624Z,98725.78
2022-09-16T10:43:39.065Z,98715.59
2022-09-16T10:46:53.095Z,98709.41
2022-09-16T10:49:58.473Z,98707.00
2022-09-16T10:53:03.214Z,98712.06
2022-09-16T10:56:08.564Z,98708.25
2022-09-16T10:59:13.310Z,98710.03
2022-09-16T11:02:32.436Z,98712.88
2022-09-16T11:05:45.887Z,98699.00
2022-09-16T11:09:01.307Z,98694.78
2022-09-16T11:12:28.000Z,98684.06
2022-09-16T11:15:44.324Z,98685.66
2022-09-16T11:18:57.479Z,98679.47
2022-09-16T11:22:13.563Z,98673.09
2022-09-16T11:25:30.760Z,98667.19
2022-09-16T11:28:56.624Z,98671.13
2022-09-16T11:32:11.103Z,98662.50
2022-09-16T11:35:34.929Z,98665.38
2022-09-16T11:38:46.930Z,98652.78
2022-09-16T11:42:02.539Z,98650.34
2022-09-16T11:45:22.033Z,98644.50
2022-09-16T11:48:42.672Z,98634.25
2022-09-16T11:52:02.638Z,98640.28
2022-09-16T11:55:23.839Z,98638.41
2022-09-16T11:58:45.357Z,98628.97
2022-09-16T12:01:54.075Z,98625.19
2022-09-16T12:05:03.230Z,98622.19
2022-09-16T12:08:12.309Z,98630.88
2022-09-16T12:11:33.007Z,98637.03
2022-09-16T12:14:40.266Z,98644.19
2022-09-16T12:17:52.117Z,98641.19
2022-09-16T12:21:04.247Z,98641.28
2022-09-16T12:24:13.449Z,98636.38
2022-09-16T12:27:28.891Z,98633.78
2022-09-16T12:30:38.796Z,98635.47
2022-09-16T12:33:47.341Z,98638.00
2022-09-16T12:37:00.552Z,98658.63
2022-09-16T12:40:05.866Z,98658.56
2022-09-16T12:43:37.185Z,98647.81
2022-09-16T12:47:14.367Z,98659.03
2022-09-16T12:50:41.088Z,98656.56
2022-09-16T12:53:57.635Z,98671.25
2022-09-16T12:57:26.008Z,98674.03
2022-09-16T13:00:33.862Z,98674.94
2022-09-16T13:03:43.973Z,98660.72
2022-09-16T13:06:50.325Z,98666.06
2022-09-16T13:10:03.172Z,98678.34
2022-09-16T13:13:08.852Z,98688.84
2022-09-16T13:16:12.653Z,98689.44
2022-09-16T13:19:42.387Z,98697.38
2022-09-16T13:22:50.254Z,98693.94
2022-09-16T13:26:00.529Z,98696.00
2022-09-16T13:29:03.780Z,98699.78
2022-09-16T13:32:07.114Z,98713.97
2022-09-16T13:35:35.832Z,98712.56
2022-09-16T13:38:40.801Z,98698.91
2022-09-16T13:41:46.887Z,98699.34
2022-09-16T13:44:50.212Z,98705.50
2022-09-16T13:47:54.113Z,98709.84
2022-09-16T13:51:00.779Z,98699.06
2022-09-16T13:54:04.638Z,98693.38
2022-09-16T13:57:22.998Z,98696.41
2022-09-16T14:00:32.370Z,98702.13
2022-09-16T14:03:47.725Z,98715.22
2022-09-16T14:07:07.635Z,98739.56
2022-09-16T14:10:18.314Z,98736.47
2022-09-16T14:13:23.486Z,98731.06
2022-09-16T14:16:29.280Z,98736.53
2022-09-16T14:19:36.963Z,98716.16
2022-09-16T14:22:44.482Z,98711.44
2022-09-16T14:25:49.351Z,98715.63
2022-09-16T14:29:04.092Z,98711.41
2022-09-16T14:32:14.830Z,98710.84
2022-09-16T14:35:21.005Z,98715.84
2022-09-16T14:41:59.611Z,98715.66
2022-09-16T14:45:04.204Z,98729.31
2022-09-16T14:48:10.437Z,98721.13
2022-09-16T14:51:21.796Z,98739.88
2022-09-16T14:54:28.344Z,98740.81
2022-09-16T14:57:33.471Z,98739.31
2022-09-16T15:00:44.316Z,98749.16
2022-09-16T15:03:52.937Z,98750.38
2022-09-16T15:07:03.974Z,98753.38
2022-09-16T15:10:18.084Z,98760.50
2022-09-16T15:13:24.217Z,98750.75
2022-09-16T15:16:28.523Z,98751.47
2022-09-16T15:19:35.431Z,98735.50
2022-09-16T15:22:41.738Z,98727.53
2022-09-16T15:25:54.872Z,98733.63
2022-09-16T15:29:00.732Z,98734.13
2022-09-16T15:32:19.595Z,98742.59
2022-09-16T15:35:25.233Z,98737.59
2022-09-16T15:38:29.633Z,98728.72
2022-09-16T15:41:34.419Z,98714.47
2022-09-16T15:44:38.638Z,98719.84
2022-09-16T15:47:59.447Z,98711.72
2022-09-16T15:51:06.809Z,98713.53
2022-09-16T15:54:18.839Z,98721.34
2022-09-16T15:57:31.766Z,98713.00
2022-09-16T16:00:59.361Z,98712.81
2022-09-16T16:04:04.664Z,98717.53
2022-09-16T16:07:09.013Z,98701.75
2022-09-16T16:10:15.196Z,98698.31
2022-09-16T16:13:19.818Z,98701.00
2022-09-16T16:16:23.243Z,98682.88
2022-09-16T16:19:26.831Z,98682.75
2022-09-16T16:22:30.003Z,98688.72
2022-09-16T16:25:33.492Z,98690.22
2022-09-16T16:28:39.177Z,98701.44
2022-09-16T16:31:42.422Z,98702.25
2022-09-16T16:34:47.850Z,98701.13
2022-09-16T16:37:51.036Z,98706.28
2022-09-16T16:40:54.242Z,98703.69
2022-09-16T16:43:58.976Z,98703.78
2022-09-16T16:47:02.693Z,98698.63
2022-09-16T16:50:06.706Z,98696.56
2022-09-16T16:53:10.051Z,98687.66
2022-09-16T16:56:15.652Z,98685.00
2022-09-16T16:59:21.304Z,98676.03
2022-09-16T17:02:24.798Z,98659.88
2022-09-16T17:05:28.173Z,98656.03
2022-09-16T17:08:31.414Z,98652.25
2022-09-16T17:11:35.163Z,98666.47
2022-09-16T17:14:39.701Z,98679.25
2022-09-16T17:17:42.962Z,98673.56
2022-09-16T17:20:46.121Z,98671.59
2022-09-16T17:23:49.498Z,98660.78
2022-09-16T17:26:52.739Z,98666.25
2022-09-16T17:29:57.314Z,98673.28
2022-09-16T17:33:00.585Z,98664.94
2022-09-16T17:36:05.946Z,98661.63
2022-09-16T17:39:13.505Z,98644.69
2022-09-16T17:42:17.017Z,98651.72
2022-09-16T17:45:21.612Z,98653.59
2022-09-16T17:48:24.884Z,98648.88
2022-09-16T17:51:28.409Z,98659.44
2022-09-16T17:54:31.602Z,98664.50
2022-09-16T17:57:34.867Z,98653.59
2022-09-16T18:00:39.979Z,98650.56
2022-09-16T18:03:45.726Z,98664.09
2022-09-16T18:06:48.954Z,98675.41
2022-09-16T18:09:52.226Z,98673.78
2022-09-16T18:12:55.460Z,98656.78
2022-09-16T18:16:05.124Z,98659.41
2022-09-16T18:19:08.706Z,98659.19
2022-09-16T18:22:11.995Z,98665.34
2022-09-16T18:25:15.388Z,98671.25
2022-09-16T18:28:18.644Z,98677.56
2022-09-16T18:31:24.601Z,98669.41
2022-09-16T18:34:32.649Z,98670.34
2022-09-16T18:37:36.662Z,98669.41
2022-09-16T18:40:40.004Z,98674.13
2022-09-16T18:43:45.237Z,98679.78
2022-09-16T18:46:50.028Z,98676.03
2022-09-16T18:49:53.292Z,98675.22
2022-09-16T18:52:56.450Z,98672.28
2022-09-16T18:56:00.369Z,98677.88
2022-09-16T18:59:23.437Z,98677.94
2022-09-16T19:02:28.728Z,98685.94
2022-09-16T19:05:31.829Z,98683.91
2022-09-16T19:08:36.083Z,98686.63
2022-09-16T19:11:40.151Z,98678.28
2022-09-16T19:14:43.620Z,98674.38
2022-09-16T19:17:48.264Z,98676.94
2022-09-16T19:20:51.605Z,98682.09
2022-09-16T19:23:57.313Z,98683.28
2022-09-16T19:27:00.545Z,98679.22
2022-09-16T19:30:04.086Z,98674.44
2022-09-16T19:33:08.737Z,98667.16
2022-09-16T19:36:13.327Z,98663.56
2022-09-16T19:39:16.633Z,98664.06
2022-09-16T19:42:19.876Z,98662.50
2022-09-16T19:45:27.712Z,98653.97
2022-09-16T19:48:33.752Z,98654.72
2022-09-16T19:51:37.827Z,98659.78
2022-09-16T19:54:41.075Z,98656.50
2022-09-16T19:57:44.287Z,98641.91
2022-09-16T20:00:56.309Z,98652.09
2022-09-16T20:04:01.684Z,98645.56
2022-09-16T20:07:05.912Z,98646.44
2022-09-16T20:10:09.757Z,98637.69
2022-09-16T20:13:13.497Z,98643.59
2022-09-16T20:16:17.513Z,98628.38
2022-09-16T20:19:22.124Z,98630.47
2022-09-16T20:22:25.442Z,98633.66
2022-09-16T20:25:56.638Z,98630.97
2022-09-16T20:29:00.513Z,98634.50
2022-09-16T20:32:04.127Z,98651.94
2022-09-16T20:35:09.828Z,98643.41
2022-09-16T20:38:13.109Z,98642.41
2022-09-16T20:41:19.100Z,98639.47
2022-09-16T20:44:22.349Z,98635.91
2022-09-16T20:47:29.234Z,98633.81
2022-09-16T20:50:33.951Z,98635.91
2022-09-16T20:53:38.258Z,98633.47
2022-09-16T20:56:43.396Z,98644.44
2022-09-16T20:59:46.643Z,98649.00
2022-09-16T21:02:49.920Z,98651.13
2022-09-16T21:06:00.783Z,98656.75
2022-09-16T21:09:06.808Z,98644.72
2022-09-16T21:12:09.958Z,98653.00
2022-09-16T21:15:13.170Z,98662.88
2022-09-16T21:18:16.418Z,98668.53
2022-09-16T21:21:21.059Z,98661.63
2022-09-16T21:24:24.257Z,98669.72
2022-09-16T21:27:27.458Z,98672.94
2022-09-16T21:30:30.633Z,98666.19
2022-09-16T21:33:35.997Z,98663.31
2022-09-16T21:36:41.093Z,98671.84
2022-09-16T21:39:44.255Z,98663.56
2022-09-16T21:42:47.467Z,98656.84
2022-09-16T21:45:50.640Z,98661.41
2022-09-16T21:48:56.326Z,98662.19
2022-09-16T21:52:00.880Z,98657.41
2022-09-16T21:55:04.237Z,98658.47
2022-09-16T21:58:07.701Z,98645.38
2022-09-16T22:01:13.329Z,98644.00
2022-09-16T22:04:18.227Z,98634.63
2022-09-16T22:07:22.847Z,98645.66
2022-09-16T22:10:26.017Z,98634.91
2022-09-16T22:13:31.017Z,98635.19
2022-09-16T22:16:37.218Z,98631.47
2022-09-16T22:19:40.438Z,98628.78
2022-09-16T22:22:45.076Z,98636.53
2022-09-16T22:25:48.618Z,98621.53
2022-09-16T22:28:52.272Z,98610.84
2022-09-16T22:31:55.501Z,98613.03
2022-09-16T22:34:58.733Z,98597.47
2022-09-16T22:38:04.167Z,98588.91
2022-09-16T22:41:09.338Z,98595.88
2022-09-16T22:44:12.901Z,98594.81
2022-09-16T22:47:16.131Z,98607.63
2022-09-16T22:50:19.241Z,98607.88
2022-09-16T22:53:24.789Z,98598.53
2022-09-16T22:56:31.996Z,98589.44
2022-09-16T22:59:35.469Z,98581.97
2022-09-16T23:02:38.674Z,98576.63
2022-09-16T23:05:42.083Z,98575.03
2022-09-16T23:08:47.147Z,98557.59
2022-09-16T23:11:50.447Z,98561.59
2022-09-16T23:14:53.635Z,98561.66
2022-09-16T23:17:56.894Z,98570.75
2022-09-16T23:21:01.509Z,98583.84
2022-09-16T23:24:08.009Z,98573.63
2022-09-16T23:27:11.185Z,98570.75
2022-09-16T23:30:14.767Z,98567.53
2022-09-16T23:33:17.988Z,98572.81
2022-09-16T23:36:21.359Z,98576.88
2022-09-16T23:39:26.205Z,98569.94
2022-09-16T23:42:29.417Z,98573.97
2022-09-16T23:45:32.641Z,98565.13
2022-09-16T23:48:35.820Z,98571.16
2022-09-16T23:51:39.288Z,98564.56
2022-09-16T23:54:43.891Z,98558.19
2022-09-16T23:57:47.267Z,98558.97
